createdAt,value
2023-04-02T00:01:21.074Z,2.97
2023-04-02T00:03:54.213Z,2.85
2023-04-02T00:06:33.225Z,2.72
2023-04-02T00:09:13.875Z,2.80
2023-04-02T00:11:45.873Z,2.65
2023-04-02T00:14:30.008Z,2.55
2023-04-02T00:17:01.781Z,3.33
2023-04-02T00:19:42.035Z,2.60
2023-04-02T00:22:19.914Z,2.47
2023-04-02T00:24:53.121Z,2.35
2023-04-02T00:27:21.642Z,3.03
2023-04-02T00:29:55.558Z,3.03
2023-04-02T00:32:35.264Z,2.85
2023-04-02T00:35:05.192Z,2.70
2023-04-02T00:37:42.527Z,2.58
2023-04-02T00:40:25.269Z,2.47
2023-04-02T00:42:54.802Z,2.47
2023-04-02T00:45:33.494Z,2.65
2023-04-02T00:48:21.119Z,3.25
2023-04-02T00:50:51.309Z,3.28
2023-04-02T00:53:31.414Z,2.67
2023-04-02T00:56:00.831Z,2.50
2023-04-02T00:58:34.597Z,2.50
2023-04-02T01:01:04.870Z,2.47
2023-04-02T01:03:37.312Z,2.58
2023-04-02T01:06:16.153Z,2.70
2023-04-02T01:09:06.238Z,2.70
2023-04-02T01:11:55.224Z,2.85
2023-04-02T01:14:33.433Z,2.83
2023-04-02T01:17:32.914Z,2.85
2023-04-02T01:20:13.169Z,2.90
2023-04-02T01:23:14.822Z,2.88
2023-04-02T01:25:54.092Z,3.63
2023-04-02T01:29:02.305Z,3.63
2023-04-02T01:34:00.896Z,5.00
2023-04-02T01:36:42.151Z,4.40
2023-04-02T01:39:40.195Z,3.60
2023-04-02T01:42:17.171Z,3.35
2023-04-02T01:44:51.073Z,3.33
2023-04-02T01:47:23.633Z,3.28
2023-04-02T01:49:58.012Z,3.65
2023-04-02T01:52:39.948Z,2.90
2023-04-02T01:55:13.362Z,3.25
2023-04-02T01:57:46.533Z,2.88
2023-04-02T02:00:17.309Z,2.85
2023-04-02T02:02:51.260Z,2.80
2023-04-02T02:05:25.972Z,2.80
2023-04-02T02:10:35.116Z,2.90
2023-04-02T02:13:04.102Z,2.67
2023-04-02T02:15:34.431Z,2.40
2023-04-02T02:18:07.032Z,2.75
2023-04-02T02:20:36.530Z,2.70
2023-04-02T02:23:05.332Z,3.10
2023-04-02T02:25:35.619Z,3.38
2023-04-02T02:28:31.618Z,3.00
2023-04-02T02:31:05.911Z,3.03
2023-04-02T02:33:49.395Z,2.60
2023-04-02T02:36:33.935Z,2.33
2023-04-02T02:39:43.957Z,2.67
2023-04-02T02:42:20.646Z,2.50
2023-04-02T02:44:51.114Z,2.10
2023-04-02T02:47:25.352Z,2.05
2023-04-02T02:49:58.915Z,2.10
2023-04-02T02:52:35.897Z,2.20
2023-04-02T02:55:16.556Z,2.03
2023-04-02T02:57:53.493Z,2.25
2023-04-02T03:00:24.990Z,6.00
2023-04-02T03:02:57.357Z,5.95
2023-04-02T03:05:30.258Z,4.18
2023-04-02T03:08:06.932Z,4.80
2023-04-02T03:10:51.285Z,4.18
2023-04-02T03:13:35.855Z,4.25
2023-04-02T03:16:33.869Z,3.55
2023-04-02T03:19:37.297Z,3.58
2023-04-02T03:22:16.734Z,3.30
2023-04-02T03:25:05.953Z,3.63
2023-04-02T03:27:40.593Z,3.22
2023-04-02T03:30:37.121Z,3.50
2023-04-02T03:36:13.887Z,3.20
2023-04-02T03:38:47.594Z,3.63
2023-04-02T03:41:21.748Z,3.53
2023-04-02T03:44:01.209Z,3.55
2023-04-02T03:46:44.960Z,3.58
2023-04-02T03:49:20.578Z,3.10
2023-04-02T03:51:55.240Z,3.05
2023-04-02T03:54:23.680Z,2.60
2023-04-02T03:56:53.558Z,3.05
2023-04-02T03:59:49.161Z,2.90
2023-04-02T04:02:34.705Z,2.80
2023-04-02T04:05:05.414Z,8.48
2023-04-02T04:07:40.363Z,8.75
2023-04-02T04:10:16.273Z,8.98
2023-04-02T04:12:51.893Z,9.50
2023-04-02T04:15:34.621Z,8.88
2023-04-02T04:18:10.813Z,8.77
2023-04-02T04:20:51.327Z,9.02
2023-04-02T04:23:30.351Z,8.75
2023-04-02T04:26:26.377Z,8.48
2023-04-02T04:29:28.300Z,8.70
2023-04-02T04:32:04.459Z,7.82
2023-04-02T04:34:46.997Z,8.77
2023-04-02T04:37:29.388Z,8.73
2023-04-02T04:40:07.779Z,9.32
2023-04-02T04:42:38.742Z,8.60
2023-04-02T04:45:14.763Z,8.80
2023-04-02T04:47:51.143Z,9.38
2023-04-02T04:50:30.093Z,9.30
2023-04-02T04:53:05.155Z,9.27
2023-04-02T04:58:17.049Z,9.18
2023-04-02T05:01:17.555Z,9.55
2023-04-02T05:04:03.596Z,9.10
2023-04-02T05:06:58.045Z,9.70
2023-04-02T05:09:54.924Z,8.40
2023-04-02T05:13:02.239Z,9.98
2023-04-02T05:16:09.633Z,10.27
2023-04-02T05:21:32.320Z,11.13
2023-04-02T05:24:23.495Z,10.52
2023-04-02T05:26:57.432Z,11.23
2023-04-02T05:29:32.829Z,12.30
2023-04-02T05:32:06.854Z,11.95
2023-04-02T05:34:38.655Z,11.65
2023-04-02T05:37:16.560Z,11.90
2023-04-02T05:39:46.646Z,12.32
2023-04-02T05:42:25.742Z,11.60
2023-04-02T05:45:25.999Z,11.80
2023-04-02T05:48:02.298Z,13.20
2023-04-02T05:50:44.852Z,13.40
2023-04-02T05:53:18.264Z,13.52
2023-04-02T05:55:57.657Z,13.10
2023-04-02T05:58:47.123Z,12.77
2023-04-02T06:01:42.293Z,13.57
2023-04-02T06:04:48.572Z,13.27
2023-04-02T06:07:23.922Z,12.68
2023-04-02T06:22:34.817Z,11.75
2023-04-02T06:26:04.576Z,11.75
2023-04-02T06:30:10.709Z,10.18
2023-04-02T06:36:47.892Z,10.25
2023-04-02T06:40:15.177Z,10.48
2023-04-02T06:43:02.765Z,11.23
2023-04-02T06:50:50.308Z,8.13
2023-04-02T06:53:35.036Z,7.10
2023-04-02T06:56:57.293Z,7.88
2023-04-02T07:00:14.044Z,7.53
2023-04-02T07:04:23.337Z,8.02
2023-04-02T07:07:28.663Z,7.05
2023-04-02T07:10:33.704Z,7.05
2023-04-02T07:13:58.904Z,4.45
2023-04-02T07:17:23.615Z,5.57
2023-04-02T07:20:36.880Z,6.55
2023-04-02T07:23:17.100Z,6.53
2023-04-02T07:29:53.419Z,5.25
2023-04-02T07:32:21.452Z,5.60
2023-04-02T07:34:49.683Z,6.40
2023-04-02T07:37:17.549Z,7.05
2023-04-02T07:39:45.907Z,7.40
2023-04-02T07:42:13.849Z,6.85
2023-04-02T07:44:42.049Z,7.50
2023-04-02T07:47:10.921Z,7.10
2023-04-02T07:49:39.127Z,6.78
2023-04-02T07:52:07.246Z,7.63
2023-04-02T07:54:36.358Z,7.68
2023-04-02T07:57:04.329Z,8.40
2023-04-02T07:59:32.582Z,8.32
2023-04-02T08:02:00.654Z,9.50
2023-04-02T08:04:28.911Z,9.95
2023-04-02T08:06:56.854Z,9.55
2023-04-02T08:09:25.132Z,10.63
2023-04-02T08:11:52.976Z,9.63
2023-04-02T08:14:21.373Z,9.77
2023-04-02T08:16:53.037Z,9.40
2023-04-02T08:19:21.824Z,9.90
2023-04-02T08:21:50.956Z,9.52
2023-04-02T08:24:22.209Z,9.20
2023-04-02T08:26:51.755Z,8.43
2023-04-02T08:29:21.812Z,8.23
2023-04-02T08:31:49.721Z,8.80
2023-04-02T08:34:18.095Z,8.30
2023-04-02T08:36:46.323Z,8.35
2023-04-02T08:39:15.019Z,8.52
2023-04-02T08:42:24.768Z,8.30
2023-04-02T08:45:21.285Z,8.50
2023-04-02T08:47:56.738Z,8.43
2023-04-02T08:50:33.393Z,7.70
2023-04-02T08:55:36.772Z,8.15
2023-04-02T08:58:31.952Z,8.20
2023-04-02T09:01:03.494Z,8.25
2023-04-02T09:03:36.033Z,8.32
2023-04-02T09:06:05.487Z,8.05
2023-04-02T09:08:33.838Z,7.88
2023-04-02T09:11:12.757Z,7.75
2023-04-02T09:13:46.865Z,7.93
2023-04-02T09:16:18.660Z,8.18
2023-04-02T09:18:48.165Z,7.88
2023-04-02T09:21:22.820Z,8.07
2023-04-02T09:23:50.926Z,7.18
2023-04-02T09:26:30.995Z,7.70
2023-04-02T09:29:02.410Z,8.52
2023-04-02T09:31:43.845Z,8.35
2023-04-02T09:34:33.586Z,8.48
2023-04-02T09:37:19.769Z,8.00
2023-04-02T09:39:47.818Z,8.52
2023-04-02T09:42:42.330Z,8.00
2023-04-02T09:45:22.176Z,8.07
2023-04-02T09:47:52.757Z,8.43
2023-04-02T09:50:27.148Z,8.18
2023-04-02T09:52:56.004Z,8.45
2023-04-02T09:55:29.378Z,8.18
2023-04-02T09:58:17.541Z,8.30
2023-04-02T10:00:53.191Z,8.77
2023-04-02T10:03:29.677Z,8.00
2023-04-02T10:08:38.899Z,8.90
2023-04-02T10:11:36.578Z,8.40
2023-04-02T10:14:22.866Z,7.57
2023-04-02T10:16:54.601Z,8.20
2023-04-02T10:19:37.455Z,8.05
2023-04-02T10:22:18.113Z,7.00
2023-04-02T10:24:47.207Z,8.00
2023-04-02T10:28:02.037Z,7.30
2023-04-02T10:30:58.653Z,7.10
2023-04-02T10:33:36.504Z,6.73
2023-04-02T10:36:36.280Z,7.38
2023-04-02T10:39:14.278Z,7.18
2023-04-02T10:42:17.832Z,7.32
2023-04-02T10:44:48.502Z,7.50
2023-04-02T10:47:22.864Z,7.85
2023-04-02T10:50:18.994Z,8.90
2023-04-02T10:53:15.900Z,26.77
2023-04-02T10:56:09.136Z,8.20
2023-04-02T10:58:46.591Z,7.88
2023-04-02T11:01:25.100Z,8.10
2023-04-02T11:03:59.395Z,13.90
2023-04-02T11:06:29.015Z,7.78
2023-04-02T11:09:07.776Z,8.50
2023-04-02T11:11:44.965Z,7.97
2023-04-02T11:14:25.588Z,8.25
2023-04-02T11:16:55.596Z,7.60
2023-04-02T11:19:32.749Z,9.85
2023-04-02T11:22:04.445Z,8.10
2023-04-02T11:24:53.695Z,7.68
2023-04-02T11:27:29.981Z,8.75
2023-04-02T11:30:18.421Z,8.10
2023-04-02T11:32:50.567Z,8.50
2023-04-02T11:35:31.043Z,8.65
2023-04-02T11:38:23.888Z,8.18
2023-04-02T11:40:58.826Z,6.82
2023-04-02T11:43:37.505Z,7.28
2023-04-02T11:46:17.454Z,6.10
2023-04-02T11:48:48.621Z,5.38
2023-04-02T11:51:23.265Z,7.00
2023-04-02T11:53:54.133Z,6.68
2023-04-02T11:56:32.367Z,7.15
2023-04-02T11:59:38.619Z,6.97
2023-04-02T12:02:42.382Z,7.47
2023-04-02T12:05:37.939Z,5.90
2023-04-02T12:08:17.482Z,7.72
2023-04-02T12:11:00.771Z,8.43
2023-04-02T12:13:41.129Z,7.10
2023-04-02T12:16:11.218Z,7.55
2023-04-02T12:18:48.185Z,6.75
2023-04-02T12:21:21.139Z,6.45
2023-04-02T12:23:53.481Z,7.07
2023-04-02T12:26:38.543Z,6.57
2023-04-02T12:29:27.657Z,6.80
2023-04-02T12:31:58.046Z,7.15
2023-04-02T12:34:31.016Z,7.38
2023-04-02T12:37:05.172Z,7.30
2023-04-02T12:39:35.418Z,7.15
2023-04-02T12:42:03.373Z,7.10
2023-04-02T12:44:32.142Z,7.00
2023-04-02T12:47:00.217Z,7.70
2023-04-02T12:49:31.892Z,7.20
2023-04-02T12:52:04.199Z,8.07
2023-04-02T12:55:05.312Z,7.30
2023-04-02T12:57:36.603Z,8.40
2023-04-02T13:00:20.256Z,7.05
2023-04-02T13:02:59.092Z,7.80
2023-04-02T13:05:47.465Z,8.18
2023-04-02T13:08:22.870Z,7.35
2023-04-02T13:11:01.133Z,7.85
2023-04-02T13:13:41.312Z,7.38
2023-04-02T13:16:16.161Z,7.47
2023-04-02T13:18:47.309Z,7.57
2023-04-02T13:21:20.675Z,7.20
2023-04-02T13:23:48.799Z,7.47
2023-04-02T13:26:23.311Z,6.85
2023-04-02T13:29:25.515Z,7.82
2023-04-02T13:31:57.192Z,7.25
2023-04-02T13:34:29.119Z,7.57
2023-04-02T13:36:58.528Z,7.13
2023-04-02T13:39:27.527Z,7.40
2023-04-02T13:42:00.443Z,7.50
2023-04-02T13:44:35.355Z,7.82
2023-04-02T13:47:07.054Z,6.88
2023-04-02T13:49:36.179Z,7.10
2023-04-02T13:52:14.057Z,7.70
2023-04-02T13:54:45.627Z,7.80
2023-04-02T13:57:14.654Z,7.20
2023-04-02T13:59:42.539Z,7.32
2023-04-02T14:02:19.292Z,7.55
2023-04-02T14:04:51.123Z,6.72
2023-04-02T14:08:17.021Z,6.90
2023-04-02T14:10:58.337Z,5.88
2023-04-02T14:13:45.090Z,6.55
2023-04-02T14:19:06.608Z,6.20
2023-04-02T14:21:55.825Z,5.95
2023-04-02T14:24:50.142Z,6.80
2023-04-02T14:27:56.191Z,7.32
2023-04-02T14:30:44.330Z,7.55
2023-04-02T14:33:42.966Z,8.27
2023-04-02T14:36:17.112Z,7.97
2023-04-02T14:38:58.000Z,8.18
2023-04-02T14:41:29.241Z,8.95
2023-04-02T14:44:02.419Z,7.22
2023-04-02T14:46:34.873Z,6.78
2023-04-02T14:49:29.291Z,6.93
2023-04-02T14:51:59.229Z,6.40
2023-04-02T14:54:52.776Z,5.95
2023-04-02T14:57:28.122Z,6.13
2023-04-02T15:00:08.661Z,6.20
2023-04-02T15:02:46.205Z,6.65
2023-04-02T15:05:41.954Z,6.28
2023-04-02T15:08:22.961Z,5.82
2023-04-02T15:11:02.997Z,5.65
2023-04-02T15:13:57.126Z,5.75
2023-04-02T15:16:29.029Z,6.05
2023-04-02T15:18:58.930Z,5.82
2023-04-02T15:21:57.494Z,5.95
2023-04-02T15:24:36.537Z,6.38
2023-04-02T15:27:26.094Z,6.47
2023-04-02T15:30:12.019Z,6.43
2023-04-02T15:32:42.042Z,6.45
2023-04-02T15:35:28.273Z,6.53
2023-04-02T15:37:59.250Z,6.85
2023-04-02T15:40:45.972Z,7.95
2023-04-02T15:45:50.741Z,7.00
2023-04-02T15:48:28.958Z,7.82
2023-04-02T15:51:08.529Z,7.00
2023-04-02T15:54:14.495Z,6.85
2023-04-02T15:57:01.854Z,7.05
2023-04-02T15:59:50.119Z,7.28
2023-04-02T16:02:46.694Z,7.57
2023-04-02T16:05:40.782Z,7.40
2023-04-02T16:08:29.294Z,7.75
2023-04-02T16:10:57.237Z,7.03
2023-04-02T16:13:40.491Z,7.80
2023-04-02T16:16:36.406Z,7.43
2023-04-02T16:19:40.115Z,7.47
2023-04-02T16:22:11.878Z,6.63
2023-04-02T16:24:43.701Z,7.30
2023-04-02T16:27:54.506Z,7.03
2023-04-02T16:30:49.720Z,7.28
2023-04-02T16:33:49.151Z,7.18
2023-04-02T16:36:42.581Z,7.38
2023-04-02T16:39:42.462Z,9.00
2023-04-02T16:42:23.522Z,7.20
2023-04-02T16:49:31.234Z,7.20
2023-04-02T16:52:22.068Z,7.85
2023-04-02T16:54:52.688Z,9.05
2023-04-02T16:57:58.010Z,8.98
2023-04-02T17:01:01.771Z,8.95
2023-04-02T17:03:39.111Z,9.20
2023-04-02T17:06:22.855Z,9.50
2023-04-02T17:09:06.450Z,8.65
2023-04-02T17:11:42.737Z,9.77
2023-04-02T17:14:27.267Z,10.45
2023-04-02T17:17:03.877Z,9.73
2023-04-02T17:19:33.175Z,9.35
2023-04-02T17:22:04.980Z,8.90
2023-04-02T17:24:48.149Z,8.88
2023-04-02T17:27:43.712Z,8.77
2023-04-02T17:30:35.124Z,8.07
2023-04-02T17:33:11.778Z,8.50
2023-04-02T17:36:00.917Z,8.98
2023-04-02T17:38:45.798Z,8.65
2023-04-02T17:41:37.415Z,8.65
2023-04-02T17:44:08.141Z,9.00
2023-04-02T17:47:13.156Z,8.77
2023-04-02T17:49:52.586Z,9.05
2023-04-02T17:52:29.103Z,9.15
2023-04-02T17:54:59.581Z,9.15
2023-04-02T17:57:39.543Z,9.10
2023-04-02T18:00:28.821Z,8.40
2023-04-02T18:03:16.147Z,8.68
2023-04-02T18:05:53.700Z,9.48
2023-04-02T18:09:03.297Z,8.55
2023-04-02T18:11:45.331Z,8.68
2023-04-02T18:14:34.668Z,8.45
2023-04-02T18:17:24.113Z,8.85
2023-04-02T18:19:59.367Z,9.60
2023-04-02T18:22:41.632Z,9.07
2023-04-02T18:25:46.181Z,10.25
2023-04-02T18:28:30.917Z,10.40
2023-04-02T18:31:23.057Z,11.63
2023-04-02T18:34:14.525Z,10.60
2023-04-02T18:37:27.536Z,11.85
2023-04-02T18:40:37.091Z,10.90
2023-04-02T18:43:37.990Z,9.50
2023-04-02T18:46:21.298Z,10.98
2023-04-02T18:49:00.307Z,10.70
2023-04-02T18:51:34.428Z,9.93
2023-04-02T18:54:44.181Z,8.82
2023-04-02T18:57:16.551Z,11.00
2023-04-02T19:00:16.992Z,10.95
2023-04-02T19:02:50.939Z,12.82
2023-04-02T19:05:31.478Z,12.07
2023-04-02T19:08:19.467Z,12.20
2023-04-02T19:10:53.631Z,12.80
2023-04-02T19:13:22.308Z,12.73
2023-04-02T19:16:01.357Z,11.60
2023-04-02T19:18:59.482Z,10.48
2023-04-02T19:21:47.350Z,10.63
2023-04-02T19:24:36.800Z,11.18
2023-04-02T19:37:08.444Z,11.77
2023-04-02T19:40:56.211Z,12.25
2023-04-02T19:43:38.703Z,10.85
2023-04-02T19:46:53.180Z,11.70
2023-04-02T19:50:37.528Z,11.50
2023-04-02T19:57:17.891Z,12.15
2023-04-02T20:01:06.625Z,12.45
2023-04-02T20:11:22.697Z,12.77
2023-04-02T20:14:15.649Z,12.25
2023-04-02T20:23:43.958Z,11.77
2023-04-02T20:26:55.511Z,12.32
2023-04-02T20:29:36.136Z,11.30
2023-04-02T20:35:46.080Z,12.15
2023-04-02T20:39:26.227Z,13.85
2023-04-02T20:43:39.960Z,11.57
2023-04-02T20:47:14.766Z,11.75
2023-04-02T20:49:56.172Z,10.98
2023-04-02T20:53:21.807Z,11.10
2023-04-02T20:57:27.968Z,10.80
2023-04-02T21:05:02.079Z,11.45
2023-04-02T21:09:22.668Z,11.55
2023-04-02T21:12:12.583Z,11.40
2023-04-02T21:15:06.538Z,11.13
2023-04-02T21:19:05.258Z,11.43
2023-04-02T21:31:04.555Z,11.27
2023-04-02T21:38:00.222Z,11.05
2023-04-02T21:40:58.210Z,10.23
2023-04-02T21:44:41.466Z,10.93
2023-04-02T21:48:15.694Z,10.40
2023-04-02T21:55:02.638Z,11.23
2023-04-02T21:57:33.819Z,10.98
2023-04-02T22:01:26.094Z,10.73
2023-04-02T22:04:11.716Z,10.90
2023-04-02T22:07:52.299Z,11.57
2023-04-02T22:10:57.816Z,11.43
2023-04-02T22:14:04.901Z,11.77
2023-04-02T22:17:08.623Z,10.85
2023-04-02T22:26:23.906Z,11.98
2023-04-02T22:29:03.072Z,12.15
2023-04-02T22:31:38.961Z,11.15
2023-04-02T22:34:32.715Z,11.55
2023-04-02T22:37:52.130Z,10.90
2023-04-02T22:41:58.710Z,10.50
2023-04-02T22:44:35.276Z,9.95
2023-04-02T22:47:21.590Z,9.93
2023-04-02T22:49:58.365Z,10.75
2023-04-02T22:55:34.424Z,10.10
2023-04-02T22:58:02.278Z,10.00
2023-04-02T23:00:31.492Z,10.90
2023-04-02T23:03:01.256Z,11.20
2023-04-02T23:05:30.082Z,13.15
2023-04-02T23:07:59.410Z,11.50
2023-04-02T23:10:33.985Z,10.45
2023-04-02T23:13:02.001Z,11.80
2023-04-02T23:15:30.235Z,12.90
2023-04-02T23:17:58.248Z,11.07
2023-04-02T23:20:27.008Z,11.05
2023-04-02T23:22:54.810Z,11.57
2023-04-02T23:25:24.377Z,11.25
2023-04-02T23:27:52.348Z,11.75
2023-04-02T23:30:20.575Z,12.63
2023-04-02T23:32:48.421Z,11.00
2023-04-02T23:35:17.981Z,11.90
2023-04-02T23:37:49.348Z,11.98
2023-04-02T23:40:18.050Z,11.70
2023-04-02T23:42:45.827Z,11.32
2023-04-02T23:45:14.261Z,10.88
2023-04-02T23:47:43.593Z,10.60
2023-04-02T23:50:12.018Z,11.30
2023-04-02T23:52:40.391Z,11.82
2023-04-02T23:55:09.087Z,11.32
2023-04-02T23:57:36.975Z,12.05
